Cwmbran, United Kingdom
Current Conditions -  °F | °C
As of 5:20 PM on Wednesday 26 Nov 2014 (Local Time) from EGFF Reporting Station
Haze Haze  
Wind Chill: 46°   Ceiling: 2300
Heat Index: 46°   Visibility: 1.2mi
Dew Point: 45°   Wind: 2mph
Humidity: 93%   Direction: 70°ENE
Pressure: 29.83"   Gusts: NA
Location:  51.65°N, 3.03°W
Report Text: EGFF 261720Z AUTO 07002KT 2000 BR FEW013 BKN023 OVC040 08/07 Q1010
Loading
Personal Weather Stations






























Interactive Weather Map New forecast layout! Learn more

10-Day Weather Forecast

Advertisements
Track Severe Weather on mobile